Ashford, West Virginia
Current Conditions -  °F | °C
As of 4:54 PM on Tuesday 25 Nov 2014 (Local Time) from KCRW Reporting Station
Few Clouds Few Clouds  
Wind Chill: 52°   Ceiling: Unl
Heat Index: 52°   Visibility: 10mi
Dew Point: 26°   Wind: 6mph
Humidity: 37%   Direction: 290°WNW
Pressure: 30.07"   Gusts: NA
Location:  38.18°N, 81.71°W
Report Text: KCRW 252154Z 29005KT 10SM FEW150 11/M03 A3007 RMK AO2 SLP183 T01111033
Loading
Personal Weather Stations






























Interactive Weather Map New forecast layout! Learn more

10-Day Weather Forecast

Advertisements
Track Severe Weather on mobile